Ravensdale, Washington
Current Conditions -  °F | °C
As of 12:53 AM on Monday 24 Nov 2014 (Local Time) from KRNT Reporting Station
Clear Clear  
Wind Chill: 44°   Ceiling: Unl
Heat Index: 44°   Visibility: 10mi
Dew Point: 41°   Wind: 3mph
Humidity: 89%   Direction: 120°ESE
Pressure: 30.37"   Gusts: NA
Location:  47.35°N, 121.99°W
Report Text: KRNT 240853Z AUTO 12003KT 10SM CLR 07/05 A3037 RMK AO2 SLP289 T00670050 51018
Loading
Personal Weather Stations






























Interactive Weather Map New forecast layout! Learn more

10-Day Weather Forecast

Advertisements
Track Severe Weather on mobile